Flight Track Log - Related Links

Times and Time Zones

All times are in EDT time to prevent confusion due to time zone crossing. See the CSN6456 flight status page for this flight to view local times or setup timezone preferences in your user account.

Time Position Orientation Groundspeed Altitude Reporting Facility
EDT Latitude Longitude Course Direction KTS MPH feet Rate Location/Type
Fri 06:39:00 AM 40.5876 110.1942 80° East  Level Estimated
Fri 06:40:00 AM 40.6148 110.3916 80° East  Level Estimated
Fri 06:41:00 AM 40.6416 110.5892 80° East  Level Estimated
Fri 06:42:00 AM 40.6682 110.7869 80° East  Level Estimated
Fri 06:43:00 AM 40.6944 110.9848 80° East  Level Estimated
Fri 06:44:00 AM 40.7202 111.1829 80° East  Level Estimated
Fri 06:45:00 AM 40.7458 111.3811 80° East  Level Estimated
Fri 06:46:00 AM 40.7709 111.5795 80° East  Level Estimated
Fri 06:47:00 AM 40.7958 111.7780 81° East  Level Estimated
Fri 06:48:00 AM 40.8203 111.9766 81° East  Level Estimated
Fri 06:49:00 AM 40.8444 112.1754 81° East  Level Estimated
Fri 06:50:00 AM 40.8683 112.3744 81° East  Level Estimated
Fri 06:51:00 AM 40.8917 112.5735 81° East  Level Estimated
Fri 06:52:00 AM 40.9149 112.7727 81° East  Level Estimated
Fri 06:53:00 AM 40.9377 112.9721 81° East  Level Estimated
Fri 06:54:00 AM 40.9601 113.1715 81° East  Level Estimated
Fri 06:55:00 AM 40.9822 113.3712 82° East  Level Estimated
Fri 06:56:00 AM 41.0040 113.5710 82° East  Level Estimated
Fri 06:57:00 AM 41.0254 113.7709 82° East  Level Estimated
Fri 06:58:00 AM 41.0465 113.9709 82° East  Level Estimated
Fri 06:59:00 AM 41.0672 114.1711 82° East  Level Estimated
Fri 07:00:00 AM 41.0876 114.3713 82° East  Level Estimated
Fri 07:01:00 AM 41.1076 114.5717 82° East  Level Estimated
Fri 07:02:00 AM 41.1273 114.7722 83° East  Level Estimated
Fri 07:03:00 AM 41.1466 114.9729 83° East  Level Estimated
Fri 07:04:00 AM 41.1656 115.1737 83° East  Level Estimated
Fri 07:05:00 AM 41.1843 115.3745 83° East  Level Estimated
Fri 07:06:00 AM 41.2026 115.5755 83° East  Level Estimated
Fri 07:07:00 AM 41.2205 115.7766 83° East  Level Estimated
Fri 07:08:00 AM 41.2381 115.9778 83° East  Level Estimated
Fri 07:08:00 AM 42.0390 116.0630 83° East 505 581 37,100  Level FlightAware ADS-B
Fri 07:08:48 AM 42.0470 116.1870 85° East 505 581 37,100  Level FlightAware ADS-B
Fri 07:11:00 AM 42.0353 116.6380 92° East  Level Estimated
Fri 07:12:00 AM 42.0295 116.8430 92° East  Level Estimated
Fri 07:13:00 AM 42.0232 117.0479 92° East  Level Estimated
Fri 07:14:00 AM 42.0166 117.2527 92° East  Level Estimated
Fri 07:15:00 AM 42.0096 117.4576 93° East  Level Estimated
Fri 07:16:00 AM 42.0023 117.6624 93° East  Level Estimated
Fri 07:17:00 AM 41.9946 117.8671 93° East  Level Estimated
Fri 07:18:00 AM 41.9865 118.0718 93° East  Level Estimated
Fri 07:19:00 AM 41.9781 118.2764 93° East  Level Estimated
Fri 07:20:00 AM 41.9693 118.4810 93° East  Level Estimated
Fri 07:21:00 AM 41.9601 118.6855 93° East  Level Estimated
Fri 07:22:00 AM 41.9506 118.8900 94° East  Level Estimated
Fri 07:23:00 AM 41.9407 119.0943 94° East  Level Estimated
Fri 07:24:00 AM 41.9305 119.2987 94° East  Level Estimated
Fri 07:25:00 AM 41.9199 119.5029 94° East  Level Estimated
Fri 07:26:00 AM 41.9089 119.7071 94° East  Level Estimated
Fri 07:27:00 AM 41.8976 119.9112 94° East  Level Estimated
Fri 07:28:00 AM 41.8859 120.1153 94° East  Level Estimated
Fri 07:29:00 AM 41.8738 120.3193 94° East  Level Estimated
Fri 07:30:00 AM 41.8614 120.5232 95° East  Level Estimated
Fri 07:31:00 AM 41.8486 120.7270 95° East  Level Estimated
Fri 07:32:00 AM 41.8355 120.9307 95° East  Level Estimated
Fri 07:33:00 AM 41.8220 121.1344 95° East  Level Estimated
Fri 07:34:00 AM 41.8082 121.3379 95° East  Level Estimated
Fri 07:35:00 AM 41.7939 121.5414 95° East  Level Estimated
Fri 07:36:00 AM 41.7794 121.7448 95° East  Level Estimated
Fri 07:37:00 AM 41.7645 121.9481 96° East  Level Estimated
Fri 07:38:00 AM 41.7492 122.1512 96° East  Level Estimated
Fri 07:39:00 AM 41.7335 122.3543 96° East  Level Estimated
Fri 07:40:00 AM 41.7175 122.5573 96° East  Level Estimated
Fri 07:41:00 AM 41.7011 122.7602 96° East  Level Estimated
Fri 07:42:00 AM 41.6844 122.9630 96° East  Level Estimated
Fri 07:43:00 AM 41.6674 123.1657 96° East  Level Estimated
Fri 07:44:00 AM 41.6499 123.3682 97° East  Level Estimated
Fri 07:45:00 AM 41.6398 123.4834 97° East  Level Estimated
Fri 07:46:00 AM 41.6398 123.4834 62° Northeast  Level Estimated
Fri 07:47:00 AM 41.6398 123.4834 62° Northeast  Level Estimated
Fri 07:48:00 AM 41.6398 123.4834 62° Northeast  Level Estimated
Fri 07:49:00 AM 41.6398 123.4834 62° Northeast  Level Estimated
Fri 07:50:00 AM 41.6398 123.4834 62° Northeast  Level Estimated
Fri 07:51:00 AM 41.6398 123.4834 62° Northeast  Level Estimated
Fri 07:52:00 AM 41.6398 123.4834 62° Northeast  Level Estimated
Fri 07:53:00 AM 41.6398 123.4834 62° Northeast  Level Estimated
Fri 07:54:00 AM 41.6398 123.4834 62° Northeast  Level Estimated
Fri 07:55:00 AM 41.6398 123.4834 62° Northeast  Level Estimated
Fri 07:56:00 AM 41.6398 123.4834 62° Northeast  Level Estimated
Fri 07:57:00 AM 41.6398 123.4834 62° Northeast  Level Estimated
Fri 07:58:00 AM 41.6398 123.4834 62° Northeast  Level Estimated
Fri 07:59:00 AM 41.6398 123.4834 62° Northeast  Level Estimated
Fri 08:00:00 AM 41.6398 123.4834 62° Northeast  Level Estimated
Fri 08:01:00 AM 41.6398 123.4834 62° Northeast  Level Estimated

Login

Don't have an account? Register now (free) for customized features, flight alerts, and more!